Time;durP1;ratioP1;P1;durP2;ratioP2;P2;SDS_P1;SDS_P2;PMS_P1;PMS_P2;Temp;Humidity;BMP_temperature;BMP_pressure;BME280_temperature;BME280_humidity;BME280_pressure;Samples;Min_cycle;Max_cycle;Signal;HPM_P1;HPM_P2
2023/04/04 00:01:03;;;;;;;8.38;7.78;;;;;;;4.09;72.48;95617.34;4935734;29;20043;-71
2023/04/04 00:03:28;;;;;;;8.25;7.65;;;;;;;4.00;72.93;95611.00;4938341;29;20043;-71
2023/04/04 00:05:54;;;;;;;8.60;7.90;;;;;;;4.10;71.76;95616.44;4921712;29;20795;-71
2023/04/04 00:08:20;;;;;;;8.30;7.70;;;;;;;4.02;72.59;95619.56;4931067;29;20544;-71
2023/04/04 00:10:46;;;;;;;8.60;7.85;;;;;;;3.98;72.19;95615.50;4920694;29;20028;-71
2023/04/04 00:13:12;;;;;;;8.68;7.88;;;;;;;4.07;72.57;95620.06;4935305;29;20111;-71
2023/04/04 00:15:37;;;;;;;8.07;7.38;;;;;;;4.03;72.78;95615.16;4939677;29;20074;-71
2023/04/04 00:18:03;;;;;;;8.50;7.75;;;;;;;4.06;72.16;95618.41;4938810;29;20053;-71
2023/04/04 00:20:29;;;;;;;8.48;7.43;;;;;;;4.03;71.79;95618.63;4940200;29;20075;-71
2023/04/04 00:22:55;;;;;;;8.50;7.75;;;;;;;3.95;71.95;95610.47;4919269;29;20110;-71
2023/04/04 00:25:20;;;;;;;7.82;7.32;;;;;;;3.87;72.45;95611.00;4921114;29;20539;-71
2023/04/04 00:27:49;;;;;;;8.98;7.90;;;;;;;4.00;72.19;95617.03;4936178;29;20035;-71
2023/04/04 00:30:15;;;;;;;9.02;7.88;;;;;;;3.84;72.32;95609.44;4935732;29;20082;-71
2023/04/04 00:32:40;;;;;;;8.80;8.00;;;;;;;3.95;72.37;95613.91;4936635;29;20035;-72
2023/04/04 00:35:06;;;;;;;8.32;7.57;;;;;;;3.91;72.28;95604.66;4936151;29;20457;-71
2023/04/04 00:37:32;;;;;;;7.75;7.20;;;;;;;3.98;72.59;95610.28;4920053;29;20028;-71
2023/04/04 00:39:57;;;;;;;8.20;7.60;;;;;;;4.00;72.35;95604.03;4936058;29;20020;-71
2023/04/04 00:42:23;;;;;;;8.65;7.90;;;;;;;3.81;72.36;95603.59;4937715;29;20507;-71
2023/04/04 00:44:53;;;;;;;8.00;7.40;;;;;;;3.90;72.40;95604.75;4934658;29;20511;-71
2023/04/04 00:47:22;;;;;;;8.80;8.02;;;;;;;3.79;71.99;95606.31;4938032;29;20038;-71
2023/04/04 00:49:47;;;;;;;8.40;7.60;;;;;;;3.77;72.74;95602.97;4935203;29;20024;-71
2023/04/04 00:52:13;;;;;;;8.57;7.88;;;;;;;3.84;72.85;95603.38;4922380;29;20079;-71
2023/04/04 00:54:39;;;;;;;8.23;7.45;;;;;;;3.81;72.63;95595.78;4939118;29;20038;-72
2023/04/04 00:57:07;;;;;;;8.82;8.02;;;;;;;3.72;73.14;95597.22;4921782;29;20134;-71
2023/04/04 00:59:33;;;;;;;7.90;7.15;;;;;;;3.55;74.92;95587.91;4921140;29;20034;-71
2023/04/04 01:02:00;;;;;;;8.93;8.02;;;;;;;3.62;75.73;95583.97;4939075;29;20104;-72
2023/04/04 01:04:28;;;;;;;8.18;7.57;;;;;;;3.69;74.00;95582.66;4933288;29;20023;-71
2023/04/04 01:06:53;;;;;;;9.75;8.95;;;;;;;3.86;72.82;95575.44;4939428;29;20039;-71
2023/04/04 01:09:19;;;;;;;9.25;8.55;;;;;;;3.84;72.95;95578.19;4936480;29;20074;-71
2023/04/04 01:11:45;;;;;;;9.23;8.38;;;;;;;3.81;72.72;95577.53;4932132;29;20023;-71
2023/04/04 01:14:10;;;;;;;9.32;8.45;;;;;;;3.73;73.43;95571.09;4938448;29;20088;-72
2023/04/04 01:16:35;;;;;;;7.80;7.25;;;;;;;3.78;73.75;95568.19;4936833;29;20058;-71
2023/04/04 01:19:04;;;;;;;9.00;8.23;;;;;;;3.72;74.81;95572.03;4935445;29;20870;-71
2023/04/04 01:21:30;;;;;;;8.63;7.97;;;;;;;3.63;75.14;95571.81;4928175;29;20079;-71
2023/04/04 01:24:01;;;;;;;8.35;7.75;;;;;;;3.38;76.16;95563.84;4936363;29;20031;-72
2023/04/04 01:26:27;;;;;;;8.95;8.05;;;;;;;3.62;75.06;95572.75;4934679;29;20036;-71
2023/04/04 01:28:53;;;;;;;8.95;8.18;;;;;;;3.58;73.94;95574.69;4918586;29;20120;-71
2023/04/04 01:31:29;;;;;;;9.18;8.38;;;;;;;3.58;73.83;95572.09;4936322;29;20115;-71
2023/04/04 01:34:31;;;;;;;9.50;8.30;;;;;;;3.65;73.45;95572.53;4936618;29;20043;-72
2023/04/04 01:37:02;;;;;;;9.50;8.70;;;;;;;3.53;74.26;95580.19;4909051;29;20485;-71
2023/04/04 01:39:38;;;;;;;10.52;9.45;;;;;;;3.49;74.27;95572.72;4933477;29;20024;-71
2023/04/04 01:42:05;;;;;;;9.23;8.50;;;;;;;3.48;74.90;95578.84;4935355;29;20051;-72
2023/04/04 01:44:31;;;;;;;9.13;8.43;;;;;;;3.27;76.12;95579.31;4917851;29;20115;-71
2023/04/04 01:46:56;;;;;;;8.43;7.72;;;;;;;3.28;75.59;95573.19;4937800;29;20130;-71
2023/04/04 01:49:22;;;;;;;8.52;7.82;;;;;;;3.24;76.28;95580.34;4937679;29;20086;-71
2023/04/04 01:51:50;;;;;;;9.15;8.45;;;;;;;3.19;77.55;95571.16;4931826;29;20031;-71
2023/04/04 01:54:17;;;;;;;9.15;8.45;;;;;;;3.37;75.76;95574.34;4935784;29;20040;-71
2023/04/04 01:56:45;;;;;;;9.60;8.80;;;;;;;3.35;74.99;95574.44;4933292;29;20051;-71
2023/04/04 01:59:11;;;;;;;9.07;8.38;;;;;;;3.26;75.63;95573.28;4937263;29;20035;-71
2023/04/04 02:01:37;;;;;;;9.27;8.60;;;;;;;3.28;75.93;95570.59;4937156;29;20024;-71
2023/04/04 02:04:03;;;;;;;9.48;8.68;;;;;;;3.14;76.07;95574.91;4935708;29;20035;-71
2023/04/04 02:06:29;;;;;;;9.57;8.77;;;;;;;3.36;75.92;95573.50;4930113;29;20039;-71
2023/04/04 02:08:55;;;;;;;9.82;8.93;;;;;;;3.33;75.85;95572.91;4926242;29;20036;-71
2023/04/04 02:11:21;;;;;;;9.82;9.02;;;;;;;3.29;75.37;95574.84;4929650;29;20035;-71
2023/04/04 02:13:48;;;;;;;11.40;8.82;;;;;;;3.19;76.27;95571.16;4935571;29;20484;-71
2023/04/04 02:16:14;;;;;;;8.88;8.13;;;;;;;3.21;77.32;95570.16;4937505;29;20031;-72
2023/04/04 02:18:40;;;;;;;9.32;8.63;;;;;;;3.36;76.06;95568.31;4929709;29;20049;-71
2023/04/04 02:21:05;;;;;;;9.55;8.65;;;;;;;3.25;75.72;95563.81;4930308;29;20031;-71
2023/04/04 02:23:31;;;;;;;9.73;8.95;;;;;;;3.31;75.58;95562.56;4936083;29;20042;-71
2023/04/04 02:25:56;;;;;;;9.90;9.18;;;;;;;3.17;76.48;95567.84;4931636;29;20086;-71
2023/04/04 02:28:22;;;;;;;9.93;8.45;;;;;;;3.25;76.58;95569.00;4935835;29;20031;-72
2023/04/04 02:30:47;;;;;;;10.23;9.43;;;;;;;3.12;77.35;95574.19;4936270;29;20031;-71
2023/04/04 02:33:13;;;;;;;9.32;8.60;;;;;;;3.00;77.42;95574.97;4933748;29;20028;-70
2023/04/04 02:35:38;;;;;;;10.05;9.20;;;;;;;2.97;77.87;95570.78;4930032;29;20028;-72
2023/04/04 02:38:03;;;;;;;9.13;8.38;;;;;;;3.00;77.47;95569.78;4935548;29;20333;-71
2023/04/04 02:40:29;;;;;;;10.27;9.43;;;;;;;2.98;77.83;95564.66;4929363;29;20544;-72
2023/04/04 02:42:54;;;;;;;9.90;8.90;;;;;;;2.90;78.52;95560.88;4917524;29;20605;-71
2023/04/04 02:45:23;;;;;;;10.82;9.95;;;;;;;2.85;78.98;95555.97;4935149;29;20383;-72
2023/04/04 02:47:49;;;;;;;9.68;8.88;;;;;;;2.92;78.62;95559.00;4931886;29;20910;-72
2023/04/04 02:50:15;;;;;;;9.75;8.85;;;;;;;2.95;78.95;95559.66;4932705;29;20067;-72
2023/04/04 02:52:40;;;;;;;8.52;7.93;;;;;;;3.09;78.33;95557.91;4933491;29;20031;-72
2023/04/04 02:55:07;;;;;;;9.85;9.05;;;;;;;3.02;78.24;95567.91;4935602;29;20031;-72
2023/04/04 02:57:33;;;;;;;8.80;8.02;;;;;;;2.86;79.38;95561.06;4932672;29;20044;-72
2023/04/04 02:59:58;;;;;;;9.23;8.50;;;;;;;2.83;78.91;95563.03;4935764;29;20043;-72
2023/04/04 03:02:24;;;;;;;10.00;9.13;;;;;;;2.85;79.39;95562.00;4935403;29;20030;-71
2023/04/04 03:04:50;;;;;;;10.43;8.75;;;;;;;3.08;78.89;95564.06;4932800;29;20035;-71
2023/04/04 03:07:16;;;;;;;9.98;9.07;;;;;;;3.17;77.57;95563.47;4935322;29;20035;-71
2023/04/04 03:09:44;;;;;;;9.18;8.38;;;;;;;3.17;77.38;95560.03;4929588;29;20032;-71
2023/04/04 03:12:09;;;;;;;10.25;9.40;;;;;;;3.08;77.55;95558.84;4934750;29;20572;-71
2023/04/04 03:14:35;;;;;;;10.10;9.13;;;;;;;2.91;77.48;95563.41;4933307;29;20040;-72
2023/04/04 03:17:01;;;;;;;9.50;8.80;;;;;;;3.10;76.92;95565.63;4930906;29;20123;-71
2023/04/04 03:19:26;;;;;;;9.48;8.68;;;;;;;3.12;76.40;95560.34;4912173;29;20020;-71
2023/04/04 03:21:52;;;;;;;9.30;8.38;;;;;;;3.04;77.16;95558.25;4936979;29;20106;-71
2023/04/04 03:24:17;;;;;;;9.10;8.40;;;;;;;3.04;76.51;95562.59;4931385;29;20051;-71
2023/04/04 03:26:43;;;;;;;9.30;8.60;;;;;;;3.01;77.00;95558.44;4925925;29;20584;-72
2023/04/04 03:29:08;;;;;;;8.68;8.07;;;;;;;3.05;76.28;95559.06;4933438;29;20122;-71
2023/04/04 03:31:34;;;;;;;9.95;9.10;;;;;;;3.05;77.10;95564.25;4928923;29;20445;-71
2023/04/04 03:33:59;;;;;;;10.15;9.32;;;;;;;3.14;75.84;95558.47;4932135;29;20512;-72
2023/04/04 03:36:25;;;;;;;9.70;8.80;;;;;;;3.04;75.83;95557.38;4919725;29;20095;-72
2023/04/04 03:38:50;;;;;;;9.25;8.45;;;;;;;2.99;75.90;95555.09;4932463;29;20027;-72
2023/04/04 03:41:16;;;;;;;10.18;9.38;;;;;;;2.93;75.88;95568.47;4935081;29;20055;-72
2023/04/04 03:43:41;;;;;;;10.20;9.30;;;;;;;2.97;77.09;95559.53;4935586;29;20103;-72
2023/04/04 03:46:07;;;;;;;9.43;8.77;;;;;;;2.74;77.57;95564.44;4928913;29;20024;-72
2023/04/04 03:48:33;;;;;;;9.52;8.45;;;;;;;2.94;76.80;95562.34;4930014;29;20027;-72
2023/04/04 03:50:59;;;;;;;10.43;9.48;;;;;;;2.82;77.26;95557.00;4932213;29;20126;-72
2023/04/04 03:53:25;;;;;;;10.30;9.38;;;;;;;2.90;76.57;95560.88;4930907;29;20063;-73
2023/04/04 03:55:52;;;;;;;9.93;9.13;;;;;;;2.89;77.16;95565.25;4935675;29;20107;-72
2023/04/04 03:58:18;;;;;;;9.63;8.80;;;;;;;2.90;76.12;95560.88;4935203;29;20062;-73
2023/04/04 04:00:43;;;;;;;9.05;8.35;;;;;;;2.90;76.96;95563.47;4930562;29;20020;-72
2023/04/04 04:03:10;;;;;;;9.45;8.63;;;;;;;2.66;77.25;95564.94;4934697;29;20529;-72
2023/04/04 04:05:35;;;;;;;10.02;8.90;;;;;;;2.71;77.81;95568.09;4931952;29;20321;-72
2023/04/04 04:08:01;;;;;;;9.52;8.80;;;;;;;2.72;77.82;95561.09;4931999;29;20760;-72
2023/04/04 04:10:26;;;;;;;9.90;8.73;;;;;;;2.63;78.27;95559.09;4928154;29;20594;-72
2023/04/04 04:12:52;;;;;;;9.57;8.68;;;;;;;2.69;78.34;95561.31;4932871;29;20095;-72
2023/04/04 04:15:17;;;;;;;9.50;8.70;;;;;;;2.66;77.87;95557.16;4933895;29;20051;-72
2023/04/04 04:17:43;;;;;;;9.07;8.40;;;;;;;2.71;78.84;95560.28;4933808;29;20032;-72
2023/04/04 04:20:09;;;;;;;10.82;8.73;;;;;;;2.55;79.67;95560.44;4925942;29;20040;-72
2023/04/04 04:22:35;;;;;;;10.18;8.90;;;;;;;2.41;79.13;95570.84;4932806;29;20047;-72
2023/04/04 04:25:01;;;;;;;9.18;8.50;;;;;;;2.52;79.53;95563.19;4935226;29;20029;-72
2023/04/04 04:27:26;;;;;;;9.05;8.15;;;;;;;2.56;79.14;95567.28;4926387;29;20028;-72
2023/04/04 04:29:52;;;;;;;9.10;8.25;;;;;;;2.38;79.46;95568.44;4935896;29;20103;-73
2023/04/04 04:32:18;;;;;;;12.52;8.95;;;;;;;2.58;78.89;95567.19;4934001;29;20043;-72
2023/04/04 04:34:43;;;;;;;9.45;8.63;;;;;;;2.54;78.04;95568.31;4935600;29;20036;-72
2023/04/04 04:37:09;;;;;;;9.23;8.52;;;;;;;2.41;78.99;95576.84;4936267;29;20512;-74
2023/04/04 04:39:35;;;;;;;9.68;8.88;;;;;;;2.36;79.54;95578.91;4920794;29;20023;-72
2023/04/04 04:42:01;;;;;;;8.98;8.27;;;;;;;2.58;78.09;95577.56;4917702;29;20079;-72
2023/04/04 04:44:26;;;;;;;9.70;8.32;;;;;;;2.48;79.43;95576.50;4936660;29;20548;-72
2023/04/04 04:46:52;;;;;;;9.68;8.85;;;;;;;2.49;78.22;95580.75;4937085;29;20422;-71
2023/04/04 04:49:17;;;;;;;10.13;9.00;;;;;;;2.39;78.43;95580.50;4936059;29;20378;-72
2023/04/04 04:51:42;;;;;;;9.27;8.45;;;;;;;2.43;76.70;95582.81;4930625;29;20051;-73
2023/04/04 04:54:08;;;;;;;8.77;8.02;;;;;;;2.40;77.41;95577.78;4937650;29;20027;-72
2023/04/04 04:56:33;;;;;;;10.80;9.80;;;;;;;2.41;78.54;95576.03;4916795;29;20043;-72
2023/04/04 04:58:59;;;;;;;9.35;8.65;;;;;;;2.49;77.70;95578.16;4931786;29;20035;-72
2023/04/04 05:01:25;;;;;;;9.63;8.85;;;;;;;2.56;76.66;95588.09;4934624;29;20111;-72
2023/04/04 05:03:50;;;;;;;8.68;8.07;;;;;;;2.63;75.98;95590.28;4918119;29;20064;-72
2023/04/04 05:06:15;;;;;;;8.77;8.00;;;;;;;2.58;75.74;95578.44;4936372;29;20107;-72
2023/04/04 05:08:41;;;;;;;9.18;8.35;;;;;;;2.49;75.72;95583.34;4916220;29;20032;-71
2023/04/04 05:11:06;;;;;;;10.15;9.25;;;;;;;2.45;75.87;95582.69;4932186;29;20122;-72
2023/04/04 05:13:32;;;;;;;9.98;8.98;;;;;;;2.29;77.39;95585.41;4935811;29;20413;-73
2023/04/04 05:15:57;;;;;;;9.57;8.77;;;;;;;2.42;76.43;95588.09;4934893;29;20059;-72
2023/04/04 05:18:22;;;;;;;10.77;9.77;;;;;;;2.48;76.11;95587.72;4935907;29;20461;-72
2023/04/04 05:20:53;;;;;;;9.27;8.40;;;;;;;2.47;75.52;95590.41;4934667;29;20066;-72
2023/04/04 05:23:18;;;;;;;9.52;8.45;;;;;;;2.31;76.69;95593.94;4930195;29;20032;-72
2023/04/04 05:25:44;;;;;;;11.60;8.30;;;;;;;2.19;77.91;95592.94;4936653;29;20028;-71
2023/04/04 05:28:09;;;;;;;8.43;7.65;;;;;;;2.24;78.06;95590.88;4941886;29;20059;-71
2023/04/04 05:30:34;;;;;;;8.63;8.00;;;;;;;2.20;78.12;95591.16;4936721;29;20032;-73
2023/04/04 05:33:00;;;;;;;9.63;8.60;;;;;;;2.42;76.77;95593.28;4920433;29;20489;-72
2023/04/04 05:35:25;;;;;;;12.88;9.95;;;;;;;2.35;75.93;95589.41;4933494;29;20032;-73
2023/04/04 05:37:50;;;;;;;11.80;10.15;;;;;;;2.23;77.00;95594.41;4938129;29;20023;-70
2023/04/04 05:40:16;;;;;;;10.32;9.32;;;;;;;2.39;76.13;95598.69;4934106;29;20024;-74
2023/04/04 05:42:42;;;;;;;10.35;9.45;;;;;;;2.28;75.44;95591.53;4932649;29;20658;-70
2023/04/04 05:45:09;;;;;;;11.25;9.85;;;;;;;2.39;75.71;95601.28;4934119;29;20026;-72
2023/04/04 05:47:34;;;;;;;9.75;8.93;;;;;;;2.21;75.92;95603.22;4938472;29;20094;-70
2023/04/04 05:50:00;;;;;;;10.02;9.18;;;;;;;2.37;75.14;95603.13;4935321;29;20190;-71
2023/04/04 05:52:26;;;;;;;11.18;10.18;;;;;;;2.26;76.86;95604.59;4933808;29;20028;-72
2023/04/04 05:54:51;;;;;;;11.40;10.23;;;;;;;2.32;74.27;95602.56;4933917;29;20036;-75
2023/04/04 05:57:16;;;;;;;14.73;12.73;;;;;;;2.27;74.60;95601.09;4932622;29;20079;-75
2023/04/04 05:59:42;;;;;;;10.18;9.27;;;;;;;2.35;74.62;95605.00;4919527;29;20051;-73
2023/04/04 06:02:07;;;;;;;9.82;8.38;;;;;;;2.47;74.36;95609.44;4933347;29;20115;-70
2023/04/04 06:04:33;;;;;;;8.38;7.68;;;;;;;2.31;75.05;95621.69;4934450;29;20062;-70
2023/04/04 06:06:59;;;;;;;8.73;7.93;;;;;;;2.35;73.79;95618.81;4934018;29;20095;-71
2023/04/04 06:09:26;;;;;;;9.00;8.18;;;;;;;2.41;72.80;95618.44;4934045;29;20036;-69
2023/04/04 06:11:51;;;;;;;8.35;7.70;;;;;;;2.35;74.62;95620.59;4931216;29;20118;-70
2023/04/04 06:14:16;;;;;;;7.28;6.70;;;;;;;2.46;72.81;95625.94;4931171;29;20111;-69
2023/04/04 06:16:42;;;;;;;7.78;7.18;;;;;;;2.41;73.35;95618.44;4933073;29;20035;-69
2023/04/04 06:19:08;;;;;;;8.55;7.63;;;;;;;2.22;72.95;95623.91;4931080;29;20036;-69
2023/04/04 06:21:33;;;;;;;9.15;7.88;;;;;;;2.16;73.61;95629.47;4929298;29;20043;-70
2023/04/04 06:23:59;;;;;;;8.60;7.80;;;;;;;2.17;73.47;95631.16;4936371;29;20575;-70
2023/04/04 06:26:25;;;;;;;8.25;7.45;;;;;;;2.25;72.77;95641.91;4936565;29;20031;-69
2023/04/04 06:28:51;;;;;;;8.40;7.60;;;;;;;2.28;74.58;95635.72;4933060;29;20535;-70
2023/04/04 06:31:16;;;;;;;8.73;7.93;;;;;;;2.30;74.13;95644.25;4934117;29;20042;-69
2023/04/04 06:33:42;;;;;;;8.68;7.97;;;;;;;2.21;73.46;95637.84;4936761;29;20481;-70
2023/04/04 06:36:08;;;;;;;8.65;7.95;;;;;;;2.16;73.14;95650.25;4933993;29;20405;-69
2023/04/04 06:38:33;;;;;;;7.72;7.13;;;;;;;2.20;72.80;95654.34;4935398;29;20043;-69
2023/04/04 06:40:58;;;;;;;8.65;7.82;;;;;;;2.19;72.10;95649.22;4936389;29;20031;-69
2023/04/04 06:43:24;;;;;;;7.38;6.78;;;;;;;2.28;72.13;95659.91;4931382;29;20082;-69
2023/04/04 06:45:50;;;;;;;7.60;6.90;;;;;;;2.23;72.41;95653.34;4933789;29;20028;-73
2023/04/04 06:48:15;;;;;;;7.95;7.25;;;;;;;2.13;72.88;95655.66;4919669;29;20046;-69
2023/04/04 06:50:41;;;;;;;7.80;7.20;;;;;;;2.20;72.34;95658.69;4934934;29;20063;-69
2023/04/04 06:53:06;;;;;;;8.27;7.53;;;;;;;2.17;73.69;95659.72;4935758;29;20099;-69
2023/04/04 06:55:33;;;;;;;7.75;7.03;;;;;;;2.21;73.30;95665.56;4934199;29;20472;-69
2023/04/04 06:57:58;;;;;;;8.20;7.40;;;;;;;2.15;72.63;95667.59;4935711;29;20517;-70
2023/04/04 07:00:24;;;;;;;9.05;8.25;;;;;;;2.05;73.80;95663.03;4934523;29;20106;-71
2023/04/04 07:02:58;;;;;;;9.23;8.48;;;;;;;2.05;75.20;95657.84;4935838;29;20036;-70
2023/04/04 07:05:24;;;;;;;8.27;7.68;;;;;;;2.25;73.01;95660.09;4935230;29;20027;-70
2023/04/04 07:07:53;;;;;;;7.97;7.18;;;;;;;2.28;73.52;95659.91;4936186;29;20057;-71
2023/04/04 07:10:23;;;;;;;7.65;7.05;;;;;;;2.04;73.58;95659.63;4933548;29;20044;-71
2023/04/04 07:12:49;;;;;;;8.07;7.32;;;;;;;1.92;74.13;95665.53;4935035;29;20028;-71
2023/04/04 07:15:15;;;;;;;8.20;7.28;;;;;;;1.90;74.76;95663.03;4936302;29;20495;-71
2023/04/04 07:17:41;;;;;;;8.25;7.55;;;;;;;1.95;74.63;95667.94;4935770;29;20027;-74
2023/04/04 07:20:07;;;;;;;6.93;6.32;;;;;;;2.23;72.63;95671.53;4935874;29;20027;-75
2023/04/04 07:22:37;;;;;;;8.48;7.43;;;;;;;2.03;73.47;95668.34;4935765;29;20369;-75
2023/04/04 07:25:06;;;;;;;7.55;6.85;;;;;;;2.09;73.20;95667.13;4935805;29;20028;-74
2023/04/04 07:27:31;;;;;;;7.32;6.65;;;;;;;2.05;73.22;95665.63;4931629;29;20576;-75
2023/04/04 07:29:57;;;;;;;8.68;7.22;;;;;;;2.10;73.31;95666.19;4933130;29;20126;-75
2023/04/04 07:32:23;;;;;;;7.72;6.35;;;;;;;1.99;73.10;95670.25;4934887;29;20492;-75
2023/04/04 07:34:49;;;;;;;7.47;6.78;;;;;;;2.19;72.03;95678.66;4932006;29;20183;-75
2023/04/04 07:37:15;;;;;;;8.45;7.07;;;;;;;2.06;73.91;95672.50;4915246;29;20138;-75
2023/04/04 07:39:40;;;;;;;7.85;6.85;;;;;;;2.11;73.93;95673.91;4915840;29;20024;-75
2023/04/04 07:42:06;;;;;;;7.72;6.93;;;;;;;2.23;73.80;95671.53;4934833;29;20027;-75
2023/04/04 07:44:31;;;;;;;7.85;7.10;;;;;;;2.33;72.95;95672.63;4931788;29;20112;-74
2023/04/04 07:46:57;;;;;;;7.55;6.95;;;;;;;2.18;72.71;95668.34;4933688;29;20040;-75
2023/04/04 07:49:22;;;;;;;7.50;6.90;;;;;;;2.09;73.58;95667.97;4933494;29;20028;-74
2023/04/04 07:51:48;;;;;;;7.53;6.88;;;;;;;2.22;73.49;95660.28;4933672;29;20031;-74
2023/04/04 07:54:14;;;;;;;10.73;6.80;;;;;;;2.26;73.37;95666.13;4933573;29;20059;-74
2023/04/04 07:56:40;;;;;;;8.57;7.85;;;;;;;2.26;73.58;95658.34;4933686;29;20103;-74
2023/04/04 07:59:05;;;;;;;7.78;7.07;;;;;;;2.33;72.62;95667.44;4933462;29;20024;-75
2023/04/04 08:01:31;;;;;;;8.43;7.63;;;;;;;2.33;74.05;95664.03;4936206;29;20023;-72
2023/04/04 08:03:56;;;;;;;10.02;7.20;;;;;;;2.36;73.73;95664.66;4917698;29;20039;-73
2023/04/04 08:06:22;;;;;;;7.88;7.18;;;;;;;2.31;73.38;95664.09;4933355;29;20067;-75
2023/04/04 08:08:47;;;;;;;9.15;8.00;;;;;;;2.16;73.49;95660.66;4933809;29;20051;-75
2023/04/04 08:11:13;;;;;;;10.25;7.68;;;;;;;2.14;73.37;95660.72;4933300;29;20628;-75
2023/04/04 08:13:38;;;;;;;11.73;10.10;;;;;;;2.12;74.27;95653.97;4937390;29;20458;-73
2023/04/04 08:16:04;;;;;;;9.07;8.18;;;;;;;2.09;73.75;95661.91;4936281;29;20083;-76
2023/04/04 08:18:30;;;;;;;9.55;8.65;;;;;;;2.13;73.02;95660.84;4937134;29;20035;-75
2023/04/04 08:20:56;;;;;;;16.10;12.43;;;;;;;2.17;74.87;95674.47;4938483;29;20043;-75
2023/04/04 08:23:21;;;;;;;8.60;7.78;;;;;;;2.22;73.93;95669.84;4937975;29;20028;-75
2023/04/04 08:25:47;;;;;;;7.43;6.82;;;;;;;2.13;74.05;95679.84;4938581;29;20496;-76
2023/04/04 08:28:12;;;;;;;9.90;9.00;;;;;;;2.26;74.35;95677.34;4938178;29;20031;-73
2023/04/04 08:30:38;;;;;;;9.07;8.27;;;;;;;2.51;74.16;95680.25;4940005;29;20492;-73
2023/04/04 08:33:04;;;;;;;9.45;8.65;;;;;;;2.50;73.38;95684.59;4935945;29;20034;-74
2023/04/04 08:35:29;;;;;;;13.88;11.27;;;;;;;2.36;72.88;95685.44;4938864;29;20047;-73
2023/04/04 08:37:56;;;;;;;14.65;13.20;;;;;;;2.37;72.75;95687.09;4935945;29;20031;-76
2023/04/04 08:40:21;;;;;;;7.70;7.00;;;;;;;2.27;71.87;95689.41;4938279;29;20027;-74
2023/04/04 08:42:50;;;;;;;10.07;9.18;;;;;;;2.30;72.73;95693.59;4938432;29;20027;-74
2023/04/04 08:45:18;;;;;;;14.52;13.02;;;;;;;2.74;72.53;95697.03;4938280;29;20032;-72
2023/04/04 08:47:47;;;;;;;16.25;13.75;;;;;;;2.52;72.09;95698.34;4935895;29;20035;-74
2023/04/04 08:50:13;;;;;;;10.80;8.75;;;;;;;2.46;71.83;95697.91;4935429;29;20540;-73
2023/04/04 08:52:39;;;;;;;7.72;7.13;;;;;;;2.42;73.11;95705.84;4922581;29;20605;-73
2023/04/04 08:55:05;;;;;;;8.32;7.10;;;;;;;2.41;73.58;95704.19;4938337;29;20788;-75
2023/04/04 08:57:32;;;;;;;7.75;7.05;;;;;;;2.42;73.01;95702.44;4937146;29;20135;-74
2023/04/04 08:59:58;;;;;;;8.38;7.50;;;;;;;2.48;73.52;95702.06;4936240;29;20024;-74
2023/04/04 09:02:38;;;;;;;8.20;7.50;;;;;;;2.36;73.06;95697.59;4921352;29;20110;-74
2023/04/04 09:05:07;;;;;;;10.20;9.38;;;;;;;2.67;73.16;95695.75;4937132;29;20024;-74
2023/04/04 09:07:33;;;;;;;11.02;9.98;;;;;;;2.64;71.32;95701.97;4935370;29;20042;-75
2023/04/04 09:09:59;;;;;;;9.43;8.63;;;;;;;2.61;72.74;95703.94;4919717;29;20038;-74
2023/04/04 09:12:25;;;;;;;8.65;7.85;;;;;;;2.65;72.20;95708.88;4935662;29;20028;-75
2023/04/04 09:14:52;;;;;;;8.02;7.25;;;;;;;2.70;72.90;95711.16;4935889;29;20024;-75
2023/04/04 09:17:18;;;;;;;8.23;7.43;;;;;;;2.76;71.97;95715.16;4934623;29;20112;-77
2023/04/04 09:19:44;;;;;;;11.57;10.38;;;;;;;2.84;72.44;95710.31;4931409;29;20020;-73
2023/04/04 09:22:09;;;;;;;9.55;8.65;;;;;;;3.15;70.87;95713.66;4935542;29;20090;-75
2023/04/04 09:24:44;;;;;;;9.23;8.43;;;;;;;3.06;69.67;95722.84;4937415;29;20023;-74
2023/04/04 09:27:11;;;;;;;8.70;7.82;;;;;;;2.74;70.37;95730.84;4933800;29;20083;-75
2023/04/04 09:29:38;;;;;;;8.30;7.57;;;;;;;2.68;71.53;95731.22;4932906;29;20532;-74
2023/04/04 09:32:06;;;;;;;8.73;7.93;;;;;;;2.54;71.90;95737.25;4932142;29;20050;-75
2023/04/04 09:34:32;;;;;;;9.38;8.45;;;;;;;2.53;72.20;95732.97;4937622;29;20027;-72
2023/04/04 09:36:59;;;;;;;12.23;11.00;;;;;;;2.69;72.46;95738.09;4938524;29;20104;-72
2023/04/04 09:39:25;;;;;;;10.05;9.15;;;;;;;2.88;71.96;95740.44;4936185;29;20496;-72
2023/04/04 09:41:50;;;;;;;11.23;10.13;;;;;;;3.03;71.53;95741.25;4935347;29;20027;-72
2023/04/04 09:44:16;;;;;;;9.02;8.18;;;;;;;2.95;71.31;95741.72;4930368;29;20038;-72
2023/04/04 09:46:42;;;;;;;12.43;10.52;;;;;;;3.20;71.27;95742.81;4936619;29;20079;-71
2023/04/04 09:49:18;;;;;;;8.82;8.02;;;;;;;3.30;70.62;95748.28;4935779;29;20027;-72
2023/04/04 09:51:47;;;;;;;8.88;7.47;;;;;;;3.32;69.66;95741.19;4934842;29;20389;-71
2023/04/04 09:54:20;;;;;;;9.55;8.15;;;;;;;3.20;71.25;95747.16;4933180;29;20042;-72
2023/04/04 09:56:47;;;;;;;9.73;7.55;;;;;;;3.19;70.28;95742.88;4935836;29;20043;-73
2023/04/04 09:59:13;;;;;;;8.27;7.45;;;;;;;3.07;71.42;95734.94;4933267;29;20031;-71
2023/04/04 10:01:38;;;;;;;8.82;8.02;;;;;;;3.10;70.34;95734.72;4937089;29;20099;-72
2023/04/04 10:04:05;;;;;;;7.90;7.10;;;;;;;3.04;70.16;95745.53;4918138;29;20524;-71
2023/04/04 10:06:31;;;;;;;9.02;8.15;;;;;;;3.17;69.33;95736.94;4934295;29;20030;-71
2023/04/04 10:08:57;;;;;;;8.23;7.43;;;;;;;3.13;69.73;95739.75;4937534;29;20102;-72
2023/04/04 10:11:30;;;;;;;8.73;7.72;;;;;;;3.17;69.93;95742.16;4935924;29;20031;-71
2023/04/04 10:13:56;;;;;;;7.65;7.00;;;;;;;3.20;69.20;95747.16;4937592;29;20529;-72
2023/04/04 10:16:23;;;;;;;10.32;9.27;;;;;;;3.38;69.83;95748.63;4930969;29;20031;-72
2023/04/04 10:18:50;;;;;;;8.43;7.82;;;;;;;3.46;70.28;95749.94;4930340;29;20058;-72
2023/04/04 10:21:16;;;;;;;9.18;8.27;;;;;;;3.46;70.14;95757.72;4934793;29;20111;-72
2023/04/04 10:23:45;;;;;;;8.98;8.07;;;;;;;3.67;69.21;95753.78;4935681;29;20063;-73
2023/04/04 10:26:11;;;;;;;10.45;8.13;;;;;;;3.83;69.07;95753.63;4933794;29;20130;-73
2023/04/04 10:28:36;;;;;;;8.27;7.55;;;;;;;3.77;69.95;95759.22;4935951;29;20027;-73
2023/04/04 10:31:23;;;;;;;23.52;16.67;;;;;;;3.90;69.06;95755.81;4934309;29;20043;-73
2023/04/04 10:34:04;;;;;;;8.63;7.93;;;;;;;3.90;67.79;95759.28;4934159;29;20055;-72
2023/04/04 10:36:43;;;;;;;9.05;8.25;;;;;;;3.85;67.33;95767.38;4935266;29;20063;-72
2023/04/04 10:39:25;;;;;;;13.02;9.73;;;;;;;3.73;67.67;95758.56;4934152;29;20024;-72
2023/04/04 10:41:51;;;;;;;8.10;7.22;;;;;;;3.77;67.96;95764.44;4935929;29;20027;-72
2023/04/04 10:44:32;;;;;;;9.30;8.38;;;;;;;3.79;69.27;95764.31;4931723;29;20545;-72
2023/04/04 10:47:06;;;;;;;8.77;8.07;;;;;;;4.14;68.34;95761.22;4931985;29;20115;-72
2023/04/04 10:49:33;;;;;;;8.45;7.65;;;;;;;4.20;66.72;95768.63;4925497;29;20028;-73
2023/04/04 10:51:59;;;;;;;8.98;6.88;;;;;;;4.15;66.78;95768.09;4928985;29;20524;-73
2023/04/04 10:54:26;;;;;;;7.80;7.20;;;;;;;4.33;66.31;95770.44;4931292;29;20043;-73
2023/04/04 10:56:52;;;;;;;8.13;7.50;;;;;;;4.34;65.37;95772.09;4933084;29;20039;-72
2023/04/04 10:59:18;;;;;;;9.70;8.80;;;;;;;4.58;65.81;95762.63;4936876;29;20151;-73
2023/04/04 11:01:53;;;;;;;7.28;6.70;;;;;;;4.47;65.99;95761.69;4935669;29;20059;-73
2023/04/04 11:04:27;;;;;;;9.32;8.40;;;;;;;4.56;65.11;95767.13;4936130;29;20039;-73
2023/04/04 11:07:15;;;;;;;9.80;8.07;;;;;;;4.53;64.54;95767.34;4934003;29;20358;-72
2023/04/04 11:09:55;;;;;;;8.38;7.57;;;;;;;4.95;65.70;95767.13;4917869;29;20059;-72
2023/04/04 11:12:37;;;;;;;12.27;7.28;;;;;;;4.94;63.38;95767.22;4931819;29;20119;-72
2023/04/04 11:15:02;;;;;;;8.50;7.63;;;;;;;5.24;63.89;95761.66;4932151;29;20055;-72
2023/04/04 11:17:59;;;;;;;7.95;7.30;;;;;;;5.11;62.31;95769.50;4932517;29;20461;-73
2023/04/04 11:20:34;;;;;;;;;;;;;;;4.90;63.20;95770.97;4935674;29;20027;-71
2023/04/04 11:23:15;;;;;;;7.63;7.03;;;;;;;4.83;63.65;95763.59;4934925;29;20060;-73
2023/04/04 11:25:49;;;;;;;8.27;7.47;;;;;;;5.04;64.33;95756.97;4934245;29;20028;-72
2023/04/04 11:28:25;;;;;;;8.20;7.40;;;;;;;5.26;63.51;95764.97;4936218;29;20099;-73
2023/04/04 11:31:19;;;;;;;8.07;7.38;;;;;;;5.17;63.08;95755.19;4933354;29;20064;-72
2023/04/04 11:34:03;;;;;;;8.85;7.90;;;;;;;5.22;62.30;95758.31;4931539;29;20567;-73
2023/04/04 11:36:44;;;;;;;8.35;7.55;;;;;;;5.55;63.24;95759.50;4935491;29;20023;-72
2023/04/04 11:39:25;;;;;;;7.97;7.20;;;;;;;5.58;62.31;95759.28;4931072;29;20118;-73